| time (UTC) | temp F | wind direction | speed knots | gust knots | rain 1hr in | rain 24hr in | rain mn in | humidity % | barometer mb |
| 20260906094552 | 68 | 360 | 0.0 | 0.0 | 0.00 | 0.01 | 0.00 | 95 | 990.6 |
| 20260906093041 | 68 | 360 | 0.0 | 0.0 | 0.00 | 0.01 | 0.00 | 95 | 990.5 |
| 20260906091529 | 69 | 360 | 0.0 | 0.0 | 0.00 | 0.01 | 0.00 | 95 | 990.5 |
| 20260906090031 | 69 | 144 | 0.0 | 0.0 | 0.00 | 0.01 | 0.00 | 95 | 990.3 |
| 20260906084526 | 69 | 144 | 0.0 | 0.0 | 0.00 | 0.01 | 0.00 | 95 | 990.4 |
| 20260906083041 | 69 | 360 | 0.0 | 0.0 | 0.00 | 0.01 | 0.00 | 95 | 990.3 |
| 20260906081532 | 69 | 144 | 0.0 | 0.0 | 0.00 | 0.01 | 0.00 | 95 | 990.0 |
| 20260906080032 | 69 | 360 | 0.0 | 0.0 | 0.00 | 0.01 | 0.00 | 95 | 989.8 |
| 20260906074528 | 69 | 360 | 0.0 | 0.0 | 0.00 | 0.01 | 0.00 | 95 | 989.9 |
| 20260906073026 | 69 | 360 | 0.0 | 0.0 | 0.00 | 0.01 | 0.00 | 95 | 989.8 |
| 20260906071523 | 70 | 360 | 0.0 | 0.0 | 0.00 | 0.01 | 0.00 | 95 | 990.0 |
| 20260906070022 | 70 | 360 | 0.0 | 0.0 | 0.00 | 0.01 | 0.00 | 95 | 989.8 |
| 20260906064520 | 70 | 144 | 0.0 | 0.0 | 0.00 | 0.01 | 0.00 | 95 | 989.9 |
| 20260906063019 | 70 | 360 | 0.0 | 0.0 | 0.00 | 0.01 | 0.00 | 94 | 990.1 |
| 20260906061517 | 70 | 360 | 0.0 | 0.0 | 0.00 | 0.01 | 0.00 | 95 | 990.1 |
| 20260906060015 | 70 | 360 | 0.0 | 0.0 | 0.00 | 0.01 | 0.00 | 94 | 990.2 |
| 20260906054514 | 70 | 360 | 0.0 | 0.0 | 0.00 | 0.01 | 0.00 | 95 | 990.5 |
| 20260906053012 | 70 | 360 | 0.0 | 0.0 | 0.00 | 0.01 | 0.00 | 94 | 990.6 |
| 20260906051511 | 70 | 360 | 0.0 | 0.0 | 0.00 | 0.01 | 0.00 | 94 | 990.7 |
| 20260906050011 | 70 | 360 | 0.0 | 0.0 | 0.00 | 0.01 | 0.00 | 95 | 990.7 |
| 20260906044509 | 71 | 360 | 0.0 | 0.0 | 0.00 | 0.01 | 0.00 | 94 | 990.8 |
| 20260906043006 | 71 | 360 | 0.0 | 0.0 | 0.00 | 0.01 | 0.00 | 94 | 991.1 |
| 20260906041504 | 71 | 360 | 0.0 | 0.0 | 0.00 | 0.01 | 0.00 | 94 | 991.1 |
| 20260906040005 | 71 | 360 | 0.0 | 0.0 | 0.00 | 0.01 | 0.01 | 94 | 991.2 |
| 20260906034501 | 71 | 360 | 0.0 | 0.0 | 0.00 | 0.01 | 0.01 | 94 | 991.1 |
| 20260906033101 | 71 | 360 | 0.0 | 0.0 | 0.00 | 0.01 | 0.01 | 94 | 991.2 |
| 20260906031601 | 71 | 360 | 0.0 | 0.0 | 0.00 | 0.01 | 0.01 | 94 | 991.2 |
| 20260906024601 | 72 | 360 | 0.0 | 0.0 | 0.00 | 0.01 | 0.01 | 94 | 991.0 |
| 20260906023058 | 72 | 360 | 0.0 | 0.0 | 0.00 | 0.01 | 0.01 | 94 | 990.9 |
| 20260906021555 | 72 | 360 | 0.0 | 0.0 | 0.00 | 0.01 | 0.01 | 94 | 990.9 |
| 20260906020053 | 73 | 360 | 0.0 | 0.0 | 0.00 | 0.01 | 0.01 | 93 | 990.9 |
| 20260906014627 | 73 | 360 | 0.0 | 0.0 | 0.00 | 0.01 | 0.01 | 94 | 991.0 |
| 20260906013052 | 74 | 141 | 0.0 | 0.0 | 0.00 | 0.01 | 0.01 | 93 | 991.1 |
| 20260906011547 | 74 | 152 | 0.0 | 1.7 | 0.00 | 0.01 | 0.01 | 94 | 990.8 |
| 20260906010051 | 74 | 142 | 0.9 | 2.6 | 0.00 | 0.01 | 0.01 | 94 | 990.9 |
| 20260906004549 | 74 | 132 | 0.0 | 0.0 | 0.00 | 0.01 | 0.01 | 94 | 990.8 |
| 20260906003047 | 75 | 131 | 0.0 | 0.0 | 0.00 | 0.01 | 0.01 | 93 | 990.6 |
| 20260906001545 | 75 | 131 | 0.0 | 0.0 | 0.00 | 0.01 | 0.01 | 93 | 990.4 |
| 20260906000045 | 76 | 128 | 0.0 | 0.0 | 0.00 | 0.01 | 0.01 | 93 | 990.1 |
| 20260905234545 | 76 | 131 | 0.0 | 0.0 | 0.00 | 0.01 | 0.01 | 93 | 989.8 |
| 20260905233047 | 76 | 136 | 0.0 | 0.0 | 0.00 | 0.01 | 0.01 | 93 | 989.6 |
| 20260905231544 | 77 | 137 | 0.0 | 0.0 | 0.00 | 0.01 | 0.01 | 92 | 989.5 |
| 20260905230043 | 77 | 130 | 0.0 | 0.0 | 0.00 | 0.01 | 0.01 | 92 | 989.7 |
| 20260905224543 | 77 | 130 | 0.0 | 0.0 | 0.00 | 0.01 | 0.01 | 92 | 989.8 |
| 20260905223043 | 77 | 143 | 0.0 | 4.3 | 0.00 | 0.01 | 0.01 | 93 | 989.4 |
| 20260905221604 | 77 | 146 | 0.0 | 2.6 | 0.00 | 0.01 | 0.01 | 94 | 989.5 |
| 20260905220041 | 77 | 146 | 0.0 | 0.0 | 0.00 | 0.01 | 0.01 | 95 | 989.6 |
| 20260905214540 | 77 | 144 | 0.0 | 0.0 | 0.00 | 0.01 | 0.01 | 95 | 989.7 |
| 20260905213056 | 77 | 144 | 0.0 | 0.0 | 0.00 | 0.01 | 0.01 | 95 | 990.0 |
| 20260905211544 | 76 | 144 | 0.0 | 0.0 | 0.00 | 0.01 | 0.01 | 95 | 990.3 |
| 20260905210049 | 76 | 144 | 0.0 | 0.0 | 0.00 | 0.01 | 0.01 | 94 | 990.4 |
| 20260905204545 | 75 | 144 | 0.0 | 0.0 | 0.00 | 0.01 | 0.01 | 94 | 990.4 |
| 20260905203042 | 75 | 144 | 0.0 | 0.0 | 0.00 | 0.01 | 0.01 | 93 | 989.9 |
| 20260905201541 | 75 | 336 | 0.0 | 0.0 | 0.00 | 0.01 | 0.01 | 93 | 989.8 |
| 20260905200041 | 75 | 335 | 0.0 | 0.0 | 0.01 | 0.01 | 0.01 | 91 | 990.0 |
| 20260905194536 | 76 | 331 | 0.0 | 0.0 | 0.01 | 0.01 | 0.01 | 87 | 989.9 |
| 20260905193036 | 80 | 284 | 0.0 | 1.7 | 0.01 | 0.01 | 0.01 | 79 | 989.9 |
| 20260905191537 | 89 | 121 | 1.7 | 11.3 | 0.01 | 0.01 | 0.01 | 66 | 990.1 |
| 20260905190035 | 96 | 355 | 0.9 | 8.7 | 0.00 | 0.00 | 0.00 | 53 | 990.6 |
| 20260905184541 | 97 | 332 | 0.0 | 3.5 | 0.00 | 0.00 | 0.00 | 50 | 989.8 |
| 20260905183033 | 96 | 12 | 0.0 | 2.6 | 0.00 | 0.00 | 0.00 | 55 | 989.6 |
| 20260905181531 | 95 | 292 | 0.0 | 0.9 | 0.00 | 0.00 | 0.00 | 59 | 989.8 |
| 20260905180029 | 95 | 317 | 0.0 | 0.0 | 0.00 | 0.00 | 0.00 | 57 | 990.2 |
| 20260905174526 | 96 | 301 | 0.0 | 0.0 | 0.00 | 0.00 | 0.00 | 53 | 990.8 |
| 20260905173024 | 99 | 328 | 0.0 | 0.0 | 0.00 | 0.00 | 0.00 | 56 | 991.1 |
| 20260905171522 | 100 | 323 | 0.0 | 0.0 | 0.00 | 0.00 | 0.00 | 48 | 991.3 |
| 20260905170021 | 101 | 296 | 0.0 | 1.7 | 0.00 | 0.00 | 0.00 | 49 | 991.4 |
| 20260905164520 | 101 | 42 | 0.0 | 2.6 | 0.00 | 0.00 | 0.00 | 53 | 991.7 |
| 20260905163018 | 101 | 332 | 0.0 | 0.0 | 0.00 | 0.00 | 0.00 | 52 | 991.9 |
| 20260905161514 | 101 | 9 | 0.0 | 0.0 | 0.00 | 0.00 | 0.00 | 54 | 992.0 |
| 20260905160011 | 100 | 355 | 0.0 | 0.0 | 0.00 | 0.00 | 0.00 | 54 | 992.1 |
| 20260905154509 | 99 | 17 | 0.0 | 0.0 | 0.00 | 0.00 | 0.00 | 54 | 992.2 |
| 20260905153005 | 98 | 27 | 0.0 | 1.7 | 0.00 | 0.00 | 0.00 | 59 | 992.2 |
| 20260905151502 | 97 | 333 | 0.0 | 1.7 | 0.00 | 0.00 | 0.00 | 61 | 992.3 |
| 20260905150057 | 96 | 316 | 0.0 | 3.5 | 0.00 | 0.00 | 0.00 | 64 | 992.4 |
| 20260905144553 | 95 | 95 | 0.0 | 1.7 | 0.00 | 0.00 | 0.00 | 65 | 992.4 |
| 20260905143051 | 93 | 335 | 0.0 | 0.0 | 0.00 | 0.00 | 0.00 | 68 | 992.4 |
| 20260905141544 | 92 | 22 | 0.0 | 0.9 | 0.00 | 0.00 | 0.00 | 69 | 992.4 |
| 20260905140040 | 90 | 34 | 0.0 | 0.0 | 0.00 | 0.00 | 0.00 | 72 | 992.5 |
| 20260905134539 | 89 | 9 | 0.0 | 0.9 | 0.00 | 0.00 | 0.00 | 73 | 992.5 |
| 20260905133032 | 87 | 84 | 0.0 | 1.7 | 0.00 | 0.00 | 0.00 | 77 | 992.6 |
| 20260905131527 | 85 | 103 | 0.0 | 1.7 | 0.00 | 0.00 | 0.00 | 80 | 992.7 |
| 20260905130023 | 82 | 140 | 0.0 | 3.5 | 0.00 | 0.00 | 0.00 | 84 | 992.9 |
| 20260905124522 | 78 | 133 | 0.0 | 1.7 | 0.00 | 0.00 | 0.00 | 90 | 992.9 |
| 20260905123020 | 75 | 125 | 0.0 | 1.7 | 0.00 | 0.00 | 0.00 | 95 | 993.0 |
| 20260905121520 | 74 | 360 | 0.0 | 0.9 | 0.00 | 0.00 | 0.00 | 95 | 992.9 |
| 20260905120014 | 72 | 360 | 0.0 | 0.0 | 0.00 | 0.00 | 0.00 | 94 | 992.8 |
| 20260905114515 | 72 | 360 | 0.0 | 0.0 | 0.00 | 0.00 | 0.00 | 94 | 992.7 |
| 20260905113014 | 72 | 360 | 0.0 | 0.0 | 0.00 | 0.00 | 0.00 | 94 | 992.5 |
| 20260905111513 | 72 | 360 | 0.0 | 0.0 | 0.00 | 0.00 | 0.00 | 93 | 992.3 |
| 20260905110012 | 72 | 360 | 0.0 | 0.0 | 0.00 | 0.00 | 0.00 | 93 | 991.9 |
| 20260905104511 | 72 | 360 | 0.0 | 0.0 | 0.00 | 0.00 | 0.00 | 93 | 991.6 |
| 20260905103011 | 72 | 360 | 0.0 | 0.0 | 0.00 | 0.00 | 0.00 | 93 | 991.4 |
| 20260905101509 | 73 | 360 | 0.0 | 0.0 | 0.00 | 0.00 | 0.00 | 93 | 991.5 |
| 20260905100008 | 73 | 360 | 0.0 | 0.0 | 0.00 | 0.00 | 0.00 | 93 | 991.5 |